createdAt,value
2022-10-11T03:03:41.394Z,101714.25
2022-10-11T03:06:09.402Z,101716.88
2022-10-11T03:08:36.572Z,101711.56
2022-10-11T03:11:03.847Z,101716.88
2022-10-11T03:13:31.109Z,101708.06
2022-10-11T03:16:03.335Z,101704.53
2022-10-11T03:18:31.585Z,101713.38
2022-10-11T03:20:58.760Z,101701.03
2022-10-11T03:23:26.061Z,101698.50
2022-10-11T03:25:53.461Z,101706.38
2022-10-11T03:28:21.020Z,101696.69
2022-10-11T03:30:49.096Z,101708.06
2022-10-11T03:33:17.417Z,101709.84
2022-10-11T03:35:46.314Z,101705.41
2022-10-11T03:38:15.127Z,101677.09
2022-10-11T03:40:44.781Z,101705.41
2022-10-11T03:43:12.256Z,101703.63
2022-10-11T03:45:42.458Z,101707.16
2022-10-11T03:48:10.073Z,101700.97
2022-10-11T03:50:37.701Z,101702.69
2022-10-11T03:53:06.211Z,101708.03
2022-10-11T03:55:33.493Z,101711.59
2022-10-11T03:58:07.205Z,101703.69
2022-10-11T04:00:35.746Z,101664.75
2022-10-11T04:03:05.397Z,101691.38
2022-10-11T04:05:32.592Z,101705.44
2022-10-11T04:08:06.269Z,101680.75
2022-10-11T04:10:35.981Z,101701.03
2022-10-11T04:13:03.091Z,101681.59
2022-10-11T04:15:30.248Z,101706.28
2022-10-11T04:17:57.385Z,101697.50
2022-10-11T04:20:24.687Z,101679.78
2022-10-11T04:22:51.918Z,101706.28
2022-10-11T04:25:19.225Z,101687.78
2022-10-11T04:27:46.971Z,101697.47
2022-10-11T04:30:14.551Z,101708.06
2022-10-11T04:32:41.870Z,101706.25
2022-10-11T04:35:09.841Z,101708.91
2022-10-11T04:37:37.444Z,101706.28
2022-10-11T04:40:07.200Z,101714.22
2022-10-11T04:42:34.827Z,101689.50
2022-10-11T04:45:02.330Z,101707.09
2022-10-11T04:47:29.453Z,101704.50
2022-10-11T04:49:56.663Z,101707.16
2022-10-11T04:52:30.850Z,101686.78
2022-10-11T04:55:05.738Z,101715.94
2022-10-11T04:57:55.066Z,101714.16
2022-10-11T05:00:22.860Z,101714.16
2022-10-11T05:02:50.151Z,101717.72
2022-10-11T05:05:17.860Z,101720.38
2022-10-11T05:07:45.073Z,101718.59
2022-10-11T05:10:12.205Z,101719.50
2022-10-11T05:12:40.529Z,101721.31
2022-10-11T05:15:08.634Z,101721.25
2022-10-11T05:17:35.924Z,101717.75
2022-10-11T05:20:03.061Z,101722.16
2022-10-11T05:22:30.202Z,101737.97
2022-10-11T05:24:57.524Z,101731.78
2022-10-11T05:27:24.612Z,101731.75
2022-10-11T05:29:51.703Z,101752.91
2022-10-11T05:32:18.761Z,101751.16
2022-10-11T05:34:45.876Z,101741.50
2022-10-11T05:37:12.980Z,101740.63
2022-10-11T05:39:40.086Z,101711.63
2022-10-11T05:42:09.881Z,101711.59
2022-10-11T05:44:37.283Z,101711.63
2022-10-11T05:47:05.079Z,101734.66
2022-10-11T05:49:35.208Z,101741.78
2022-10-11T05:52:02.358Z,101739.06
2022-10-11T05:54:31.562Z,101737.31
2022-10-11T05:56:58.691Z,101742.56
2022-10-11T05:59:25.832Z,101738.25
2022-10-11T06:01:53.071Z,101738.19
2022-10-11T06:04:20.269Z,101737.31
2022-10-11T06:06:47.648Z,101745.22
2022-10-11T06:09:14.793Z,101744.28
2022-10-11T06:11:42.998Z,101740.78
2022-10-11T06:14:10.237Z,101743.38
2022-10-11T06:16:37.966Z,101719.66
2022-10-11T06:19:05.503Z,101743.59
2022-10-11T06:21:33.053Z,101746.09
2022-10-11T06:24:02.959Z,101749.59
2022-10-11T06:26:31.253Z,101757.53
2022-10-11T06:28:59.174Z,101755.75
2022-10-11T06:31:26.452Z,101738.97
2022-10-11T06:33:53.522Z,101764.56
2022-10-11T06:36:20.881Z,101733.63
2022-10-11T06:38:47.993Z,101768.19
2022-10-11T06:41:27.652Z,101763.72
2022-10-11T06:43:56.060Z,101769.13
2022-10-11T06:46:25.339Z,101767.28
2022-10-11T06:48:54.119Z,101766.41
2022-10-11T06:51:25.671Z,101760.25
2022-10-11T06:53:56.071Z,101769.97
2022-10-11T06:56:23.798Z,101775.19
2022-10-11T06:58:53.789Z,101768.06
2022-10-11T07:01:23.842Z,101768.09
2022-10-11T07:03:53.433Z,101776.06
2022-10-11T07:06:23.358Z,101782.22
2022-10-11T07:08:50.708Z,101775.16
2022-10-11T07:11:23.637Z,101762.72
2022-10-11T07:13:53.807Z,101785.72
2022-10-11T07:16:22.851Z,101788.44
2022-10-11T07:18:59.538Z,101787.59
2022-10-11T07:21:28.672Z,101781.38
2022-10-11T07:23:55.713Z,101798.16
2022-10-11T07:26:23.296Z,101798.09
2022-10-11T07:28:50.398Z,101806.03
2022-10-11T07:31:21.306Z,101813.91
2022-10-11T07:33:48.390Z,101811.38
2022-10-11T07:36:15.667Z,101811.34
2022-10-11T07:38:44.447Z,101816.63
2022-10-11T07:41:12.155Z,101820.22
2022-10-11T07:43:39.282Z,101826.41
2022-10-11T07:46:07.317Z,101817.53
2022-10-11T07:48:36.395Z,101840.47
2022-10-11T07:51:04.410Z,101837.00
2022-10-11T07:53:31.599Z,101846.69
2022-10-11T07:56:03.414Z,101843.19
2022-10-11T07:58:31.411Z,101842.31
2022-10-11T08:00:58.487Z,101849.44
2022-10-11T08:03:25.836Z,101842.38
2022-10-11T08:05:52.914Z,101850.34
2022-10-11T08:08:20.355Z,101852.13
2022-10-11T08:10:47.526Z,101860.06
2022-10-11T08:13:14.703Z,101860.03
2022-10-11T08:15:41.768Z,101869.75
2022-10-11T08:18:08.970Z,101863.63
2022-10-11T08:20:39.345Z,101860.13
2022-10-11T08:23:07.655Z,101871.56
2022-10-11T08:25:44.382Z,101883.94
2022-10-11T08:28:17.925Z,101881.28
2022-10-11T08:30:53.079Z,101886.59
2022-10-11T08:33:21.999Z,101877.75
2022-10-11T08:35:49.801Z,101889.22
2022-10-11T08:38:17.449Z,101907.78
2022-10-11T08:40:59.792Z,101914.84
2022-10-11T08:43:39.607Z,101901.59
2022-10-11T08:46:09.234Z,101920.19
2022-10-11T08:48:41.947Z,101915.84
2022-10-11T08:51:19.615Z,101911.53
2022-10-11T08:53:56.451Z,101901.72
2022-10-11T08:56:26.680Z,101908.81
2022-10-11T08:59:13.850Z,101928.19
2022-10-11T09:01:48.011Z,101911.44
2022-10-11T09:04:17.452Z,101924.63
2022-10-11T09:06:55.459Z,101926.44
2022-10-11T09:09:47.688Z,101924.69
2022-10-11T09:12:46.877Z,101927.31
2022-10-11T09:15:21.003Z,101933.47
2022-10-11T09:18:16.913Z,101935.25
2022-10-11T09:20:49.446Z,101931.66
2022-10-11T09:23:54.340Z,101941.44
2022-10-11T09:26:25.747Z,101939.69
2022-10-11T09:29:02.006Z,101941.47
2022-10-11T09:31:30.023Z,101936.16
2022-10-11T09:34:00.392Z,101930.94
2022-10-11T09:36:27.473Z,101931.81
2022-10-11T09:39:30.055Z,101913.25
2022-10-11T09:42:08.938Z,101929.19
2022-10-11T09:44:38.421Z,101930.09
2022-10-11T09:47:06.812Z,101936.31
2022-10-11T09:49:42.948Z,101935.44
2022-10-11T09:52:19.077Z,101924.91
2022-10-11T09:54:50.387Z,101936.41
2022-10-11T09:57:24.546Z,101936.47
2022-10-11T10:00:22.451Z,101935.63
2022-10-11T10:03:01.338Z,101931.22
2022-10-11T10:05:35.768Z,101927.75
2022-10-11T10:08:23.550Z,101925.19
2022-10-11T10:10:59.450Z,101922.56
2022-10-11T10:13:45.002Z,101927.03
2022-10-11T10:16:31.135Z,101918.22
2022-10-11T10:19:07.797Z,101908.53
2022-10-11T10:21:46.285Z,101893.50
2022-10-11T10:24:28.834Z,101913.81
2022-10-11T10:27:07.496Z,101918.25
2022-10-11T10:29:36.287Z,101899.69
2022-10-11T10:32:15.418Z,101912.09
2022-10-11T10:35:00.809Z,101914.75
2022-10-11T10:37:34.861Z,101910.38
2022-10-11T10:40:31.282Z,101921.84
2022-10-11T10:42:58.961Z,101920.09
2022-10-11T10:45:52.524Z,101905.09
2022-10-11T10:51:45.168Z,101904.25
2022-10-11T10:54:37.300Z,101904.31
2022-10-11T10:57:29.677Z,101908.75
2022-10-11T11:00:06.106Z,101900.84
2022-10-11T11:02:43.322Z,101900.78
2022-10-11T11:05:41.258Z,101889.31
2022-10-11T11:08:43.594Z,101899.06
2022-10-11T11:11:28.900Z,101912.34
2022-10-11T11:14:00.470Z,101912.34
2022-10-11T11:16:56.049Z,101924.72
2022-10-11T11:19:38.237Z,101902.63
2022-10-11T11:22:36.011Z,101928.28
2022-10-11T11:25:20.273Z,101936.22
2022-10-11T11:28:05.513Z,101931.81
2022-10-11T11:30:48.000Z,101930.06
2022-10-11T11:33:32.085Z,101943.31
2022-10-11T11:36:05.418Z,101928.28
2022-10-11T11:38:45.715Z,101917.69
2022-10-11T11:41:23.505Z,101920.34
2022-10-11T11:43:57.814Z,101909.72
2022-10-11T11:46:55.562Z,101919.44
2022-10-11T11:49:36.047Z,101921.19
2022-10-11T11:52:06.608Z,101907.94
2022-10-11T11:54:54.298Z,101897.34
2022-10-11T11:57:27.445Z,101905.31
2022-10-11T12:00:07.368Z,101910.59
2022-10-11T12:03:10.041Z,101912.38
2022-10-11T12:05:37.587Z,101910.59
2022-10-11T12:08:09.182Z,101892.03
2022-10-11T12:10:53.913Z,101900.88
2022-10-11T12:13:21.215Z,101912.34
2022-10-11T12:16:06.895Z,101889.38
2022-10-11T12:18:41.892Z,101901.69
2022-10-11T12:21:27.067Z,101893.75
2022-10-11T12:24:00.726Z,101897.25
2022-10-11T12:26:28.271Z,101899.91
2022-10-11T12:29:04.328Z,101886.66
2022-10-11T12:31:42.436Z,101886.66
2022-10-11T12:34:34.148Z,101886.66
2022-10-11T12:37:20.382Z,101900.84
2022-10-11T12:39:55.893Z,101891.13
2022-10-11T12:42:31.895Z,101901.69
2022-10-11T12:45:12.252Z,101907.91
2022-10-11T12:48:13.924Z,101902.59
2022-10-11T12:51:22.777Z,101894.63
2022-10-11T12:54:27.122Z,101904.34
2022-10-11T12:57:19.752Z,101905.25
2022-10-11T12:59:47.258Z,101898.13
2022-10-11T13:02:42.811Z,101905.22
2022-10-11T13:05:26.840Z,101907.94
2022-10-11T13:07:58.336Z,101899.09
2022-10-11T13:10:33.206Z,101899.09
2022-10-11T13:13:04.613Z,101898.22
2022-10-11T13:15:32.187Z,101883.22
2022-10-11T13:18:02.692Z,101895.59
2022-10-11T13:20:36.295Z,101893.78
2022-10-11T13:23:22.436Z,101896.47
2022-10-11T13:25:49.982Z,101896.50
2022-10-11T13:28:18.775Z,101896.47
2022-10-11T13:30:50.872Z,101870.84
2022-10-11T13:33:26.026Z,101870.84
2022-10-11T13:35:59.845Z,101887.63
2022-10-11T13:38:32.313Z,101881.44
2022-10-11T13:41:09.243Z,101888.53
2022-10-11T13:43:37.265Z,101867.31
2022-10-11T13:46:05.629Z,101879.66
2022-10-11T13:48:40.782Z,101864.66
2022-10-11T13:51:36.190Z,101881.41
2022-10-11T13:54:04.758Z,101878.81
2022-10-11T13:56:42.680Z,101877.03
2022-10-11T13:59:20.713Z,101874.34
2022-10-11T14:01:51.485Z,101870.84
2022-10-11T14:04:18.830Z,101864.66
2022-10-11T14:06:56.350Z,101851.38
2022-10-11T14:09:35.519Z,101859.38
2022-10-11T14:12:27.212Z,101869.09
2022-10-11T14:14:57.778Z,101862.00
2022-10-11T14:17:43.436Z,101853.19
2022-10-11T14:20:39.898Z,101862.00
2022-10-11T14:23:07.634Z,101857.59
2022-10-11T14:25:35.238Z,101851.41
2022-10-11T14:28:03.760Z,101847.88
2022-10-11T14:30:33.894Z,101847.03
2022-10-11T14:33:02.826Z,101854.09
2022-10-11T14:35:37.742Z,101858.47
2022-10-11T14:38:05.074Z,101859.38
2022-10-11T14:40:35.248Z,101856.72
2022-10-11T14:43:02.748Z,101855.84
2022-10-11T14:45:30.438Z,101854.06
2022-10-11T14:47:57.600Z,101853.19
2022-10-11T14:50:47.310Z,101855.84
2022-10-11T14:53:14.964Z,101847.88
2022-10-11T14:55:42.732Z,101853.19
2022-10-11T14:58:12.283Z,101853.19
2022-10-11T15:00:39.467Z,101860.25
2022-10-11T15:03:09.244Z,101856.72
2022-10-11T15:05:37.450Z,101856.72
2022-10-11T15:08:07.279Z,101854.94
2022-10-11T15:10:38.244Z,101839.06
2022-10-11T15:13:07.351Z,101841.72
2022-10-11T15:15:42.262Z,101854.97
2022-10-11T15:18:14.763Z,101848.78
2022-10-11T15:20:46.327Z,101845.25
2022-10-11T15:23:14.054Z,101847.00
2022-10-11T15:25:42.751Z,101843.50
2022-10-11T15:28:29.571Z,101832.00
2022-10-11T15:30:58.138Z,101849.66
2022-10-11T15:33:26.873Z,101841.69
2022-10-11T15:35:54.707Z,101859.38
2022-10-11T15:38:24.834Z,101842.63
2022-10-11T15:40:53.636Z,101839.94
2022-10-11T15:43:24.670Z,101842.59
2022-10-11T15:45:56.778Z,101847.88
2022-10-11T15:48:26.579Z,101835.53
2022-10-11T15:50:55.691Z,101847.03
2022-10-11T15:53:35.559Z,101854.09
2022-10-11T15:56:06.804Z,101848.78
2022-10-11T15:58:40.444Z,101847.91
2022-10-11T16:01:14.710Z,101840.84
2022-10-11T16:03:44.517Z,101821.41
2022-10-11T16:06:12.517Z,101826.72
2022-10-11T16:08:40.253Z,101846.13
2022-10-11T16:11:09.129Z,101848.81
2022-10-11T16:13:36.968Z,101842.59
2022-10-11T16:16:06.709Z,101843.47
2022-10-11T16:18:35.932Z,101840.81
2022-10-11T16:21:10.425Z,101831.13
2022-10-11T16:23:38.822Z,101832.00
2022-10-11T16:26:09.391Z,101836.44
2022-10-11T16:28:37.984Z,101837.31
2022-10-11T16:31:11.055Z,101836.41
2022-10-11T16:33:48.145Z,101817.81
2022-10-11T16:36:33.022Z,101846.06
2022-10-11T16:39:02.492Z,101832.88
2022-10-11T16:41:29.833Z,101833.72
2022-10-11T16:43:59.782Z,101816.94
2022-10-11T16:46:32.533Z,101828.41
2022-10-11T16:49:01.282Z,101831.06
2022-10-11T16:51:28.544Z,101829.28
2022-10-11T16:53:55.692Z,101826.66
2022-10-11T16:56:25.252Z,101833.69
2022-10-11T16:58:54.355Z,101828.38
2022-10-11T17:01:21.642Z,101810.69
2022-10-11T17:03:50.059Z,101829.25
2022-10-11T17:06:17.648Z,101824.81
2022-10-11T17:08:45.072Z,101814.22
2022-10-11T17:11:12.294Z,101819.50
2022-10-11T17:13:39.385Z,101823.91
2022-10-11T17:16:07.413Z,101830.94
2022-10-11T17:18:34.895Z,101816.78
2022-10-11T17:21:06.909Z,101833.59
2022-10-11T17:23:35.425Z,101822.09
2022-10-11T17:26:10.773Z,101815.88
2022-10-11T17:28:38.959Z,101814.09
2022-10-11T17:31:08.009Z,101827.34
2022-10-11T17:33:35.596Z,101822.88
2022-10-11T17:36:02.905Z,101824.66
2022-10-11T17:38:31.336Z,101819.31
2022-10-11T17:41:03.622Z,101824.56
2022-10-11T17:43:32.293Z,101813.06
2022-10-11T17:46:08.149Z,101822.75
2022-10-11T17:48:39.343Z,101825.41
2022-10-11T17:51:12.196Z,101830.63
2022-10-11T17:53:40.008Z,101829.75
2022-10-11T17:56:13.107Z,101802.28
2022-10-11T17:58:40.311Z,101834.97
2022-10-11T18:01:13.735Z,101818.13
2022-10-11T18:03:42.373Z,101826.97
2022-10-11T18:06:12.414Z,101841.97
2022-10-11T18:08:40.953Z,101846.31
2022-10-11T18:11:14.177Z,101846.31
2022-10-11T18:13:45.889Z,101848.94
2022-10-11T18:16:14.521Z,101843.63
2022-10-11T18:18:42.548Z,101848.91
2022-10-11T18:21:10.037Z,101830.34
2022-10-11T18:23:39.147Z,101851.53
2022-10-11T18:26:29.399Z,101851.59
2022-10-11T18:29:07.655Z,101863.00
2022-10-11T18:31:35.471Z,101854.22
2022-10-11T18:34:04.648Z,101863.88
2022-10-11T18:36:32.897Z,101862.94
2022-10-11T18:39:03.142Z,101865.59
2022-10-11T18:41:38.057Z,101859.34
2022-10-11T18:44:08.763Z,101870.81
2022-10-11T18:46:36.226Z,101861.97
2022-10-11T18:49:04.121Z,101867.25
2022-10-11T18:51:37.609Z,101841.59
2022-10-11T18:54:06.428Z,101866.38
2022-10-11T18:56:35.592Z,101861.81
2022-10-11T18:59:03.470Z,101878.56
2022-10-11T19:01:36.283Z,101869.81
2022-10-11T19:04:05.168Z,101877.75
2022-10-11T19:06:39.199Z,101856.59
2022-10-11T19:09:10.668Z,101884.75
2022-10-11T19:11:38.835Z,101859.97
2022-10-11T19:14:07.361Z,101882.94
2022-10-11T19:16:37.861Z,101878.50
2022-10-11T19:19:05.538Z,101886.44
2022-10-11T19:21:33.375Z,101877.53
2022-10-11T19:24:00.525Z,101888.97
2022-10-11T19:26:34.012Z,101894.22
2022-10-11T19:29:06.765Z,101894.22
2022-10-11T19:31:36.780Z,101894.19
2022-10-11T19:34:03.955Z,101881.81
2022-10-11T19:36:36.250Z,101891.53
2022-10-11T19:39:05.373Z,101892.38
2022-10-11T19:41:33.162Z,101903.88
2022-10-11T19:44:01.100Z,101886.19
2022-10-11T19:46:50.441Z,101896.75
2022-10-11T19:49:20.518Z,101901.22
2022-10-11T19:51:47.726Z,101894.13
2022-10-11T19:54:16.213Z,101890.56
2022-10-11T19:56:44.768Z,101894.13
2022-10-11T19:59:12.592Z,101897.66
2022-10-11T20:01:40.463Z,101901.13
2022-10-11T20:04:18.791Z,101910.75
2022-10-11T20:06:57.784Z,101879.84
2022-10-11T20:09:30.660Z,101902.81
2022-10-11T20:11:58.424Z,101901.94
2022-10-11T20:14:25.908Z,101908.19
2022-10-11T20:16:53.140Z,101902.84
2022-10-11T20:19:26.232Z,101900.16
2022-10-11T20:21:56.716Z,101903.72
2022-10-11T20:24:23.918Z,101904.56
2022-10-11T20:26:51.023Z,101898.41
2022-10-11T20:29:18.363Z,101900.13
2022-10-11T20:31:45.521Z,101900.13
2022-10-11T20:34:13.493Z,101902.72
2022-10-11T20:36:40.627Z,101901.91
2022-10-11T20:39:08.346Z,101908.00
2022-10-11T20:41:40.028Z,101911.50
2022-10-11T20:44:09.111Z,101922.13
2022-10-11T20:46:39.409Z,101927.38
2022-10-11T20:49:09.339Z,101928.28
2022-10-11T20:51:39.107Z,101929.13
2022-10-11T20:54:06.580Z,101911.41
2022-10-11T20:56:34.504Z,101924.66
2022-10-11T20:59:02.273Z,101930.03
2022-10-11T21:01:32.891Z,101933.53
2022-10-11T21:04:02.074Z,101930.00
2022-10-11T21:06:31.105Z,101902.50
2022-10-11T21:08:59.450Z,101938.84
2022-10-11T21:11:31.792Z,101941.50
2022-10-11T21:14:01.275Z,101937.06
2022-10-11T21:16:28.548Z,101909.59
2022-10-11T21:18:58.152Z,101939.69
2022-10-11T21:21:27.880Z,101927.31
2022-10-11T21:23:56.573Z,101932.66
2022-10-11T21:26:24.204Z,101930.91
2022-10-11T21:28:52.115Z,101935.31
2022-10-11T21:31:21.970Z,101940.59
2022-10-11T21:33:51.587Z,101935.28
2022-10-11T21:36:21.856Z,101940.56
2022-10-11T21:38:51.074Z,101942.34
2022-10-11T21:41:21.742Z,101909.69
2022-10-11T21:43:49.390Z,101934.50
2022-10-11T21:46:19.094Z,101938.97
2022-10-11T21:48:47.169Z,101929.13
2022-10-11T21:51:17.609Z,101903.44
2022-10-11T21:53:44.741Z,101930.06
2022-10-11T21:56:11.801Z,101929.19
2022-10-11T21:58:38.987Z,101935.31
2022-10-11T22:01:06.354Z,101931.75
2022-10-11T22:03:33.529Z,101916.69
2022-10-11T22:06:04.641Z,101930.81
2022-10-11T22:08:32.361Z,101910.47
2022-10-11T22:11:01.328Z,101931.72
2022-10-11T22:13:30.740Z,101920.28
2022-10-11T22:16:01.712Z,101921.16
2022-10-11T22:18:33.311Z,101913.25
2022-10-11T22:21:08.750Z,101919.47
2022-10-11T22:23:39.384Z,101900.88
2022-10-11T22:26:11.309Z,101905.28
2022-10-11T22:28:43.086Z,101905.28
2022-10-11T22:31:23.577Z,101913.22
2022-10-11T22:33:55.584Z,101906.16
2022-10-11T22:36:27.017Z,101917.63
2022-10-11T22:38:55.169Z,101900.94
2022-10-11T22:41:23.049Z,101913.28
2022-10-11T22:43:50.942Z,101907.09
2022-10-11T22:46:18.151Z,101908.97
2022-10-11T22:48:45.192Z,101893.81
2022-10-11T22:51:12.329Z,101912.34
2022-10-11T22:53:39.536Z,101915.88
2022-10-11T22:56:06.969Z,101909.66
2022-10-11T22:58:34.050Z,101915.00
